Beatty, Oregon
Current Conditions -  °F | °C
As of 10:53 AM on Friday 28 Nov 2014 (Local Time) from KLMT Reporting Station
Light Rain Light Rain  
Wind Chill: 30°   Ceiling: 4200
Heat Index: 40°   Visibility: 10mi
Dew Point: 32°   Wind: 22mph
Humidity: 73%   Direction: 200°SSW
Pressure: 29.89"   Gusts: NA
Location:  42.44°N, 121.27°W
Report Text: KLMT 281853Z 20019KT 10SM -RA BKN042 OVC050 04/00 A2989 RMK AO2 PK WND 20030/1836 RAB24 SLP118 P0000 T00440000
Loading
Personal Weather Stations






























Interactive Weather Map New forecast layout! Learn more

10-Day Weather Forecast

Advertisements
Track Severe Weather on mobile